createdAt,value
2022-11-04T00:00:26.873Z,11.51
2022-11-04T00:01:24.555Z,11.51
2022-11-04T00:02:23.637Z,11.50
2022-11-04T00:03:23.547Z,11.47
2022-11-04T00:04:23.574Z,11.45
2022-11-04T00:05:23.506Z,11.45
2022-11-04T00:06:23.494Z,11.47
2022-11-04T00:07:23.494Z,11.47
2022-11-04T00:08:23.469Z,11.44
2022-11-04T00:09:23.489Z,11.44
2022-11-04T00:10:23.467Z,11.43
2022-11-04T00:11:23.440Z,11.40
2022-11-04T00:12:23.423Z,11.37
2022-11-04T00:13:23.439Z,11.37
2022-11-04T00:14:23.411Z,11.40
2022-11-04T00:15:23.438Z,11.36
2022-11-04T00:16:23.378Z,11.37
2022-11-04T00:17:23.371Z,11.35
2022-11-04T00:18:23.360Z,11.33
2022-11-04T00:19:23.350Z,11.33
2022-11-04T00:20:23.332Z,11.33
2022-11-04T00:21:23.351Z,11.30
2022-11-04T00:22:23.304Z,11.33
2022-11-04T00:23:23.309Z,11.32
2022-11-04T00:24:23.331Z,11.29
2022-11-04T00:25:23.282Z,11.29
2022-11-04T00:26:23.277Z,11.27
2022-11-04T00:27:23.255Z,11.27
2022-11-04T00:28:23.243Z,11.27
2022-11-04T00:29:23.231Z,11.27
2022-11-04T00:30:23.242Z,11.27
2022-11-04T00:31:23.226Z,11.27
2022-11-04T00:32:23.203Z,11.26
2022-11-04T00:33:23.211Z,11.27
2022-11-04T00:34:23.173Z,11.26
2022-11-04T00:35:23.164Z,11.26
2022-11-04T00:36:23.174Z,11.26
2022-11-04T00:37:23.153Z,11.25
2022-11-04T00:38:23.164Z,11.26
2022-11-04T00:39:23.114Z,11.27
2022-11-04T00:40:23.113Z,11.27
2022-11-04T00:41:23.095Z,11.25
2022-11-04T00:42:23.093Z,11.25
2022-11-04T00:43:23.078Z,11.26
2022-11-04T00:44:23.085Z,11.26
2022-11-04T00:45:23.047Z,11.25
2022-11-04T00:46:23.046Z,11.23
2022-11-04T00:47:23.062Z,11.23
2022-11-04T00:48:23.047Z,11.22
2022-11-04T00:49:23.038Z,11.22
2022-11-04T00:50:23.026Z,11.22
2022-11-04T00:51:22.991Z,11.19
2022-11-04T00:52:22.978Z,11.22
2022-11-04T00:53:22.994Z,11.23
2022-11-04T00:54:22.978Z,11.23
2022-11-04T00:55:22.947Z,11.22
2022-11-04T00:56:22.967Z,11.19
2022-11-04T00:57:22.917Z,11.19
2022-11-04T00:58:22.925Z,11.22
2022-11-04T00:59:22.910Z,11.22
2022-11-04T01:00:22.891Z,11.19
2022-11-04T01:01:22.966Z,11.17
2022-11-04T01:02:22.992Z,11.17
2022-11-04T01:03:22.853Z,11.18
2022-11-04T01:04:22.853Z,11.17
2022-11-04T01:05:22.828Z,11.17
2022-11-04T01:06:22.824Z,11.17
2022-11-04T01:07:22.840Z,11.17
2022-11-04T01:08:22.803Z,11.17
2022-11-04T01:09:22.782Z,11.17
2022-11-04T01:10:22.785Z,11.15
2022-11-04T01:11:22.768Z,11.17
2022-11-04T01:12:22.756Z,11.17
2022-11-04T01:13:22.774Z,11.17
2022-11-04T01:14:22.736Z,11.17
2022-11-04T01:15:22.712Z,11.18
2022-11-04T01:16:22.783Z,11.17
2022-11-04T01:17:22.702Z,11.17
2022-11-04T01:18:22.684Z,11.17
2022-11-04T01:19:22.674Z,11.17
2022-11-04T01:20:22.663Z,11.17
2022-11-04T01:21:22.647Z,11.18
2022-11-04T01:22:22.668Z,11.18
2022-11-04T01:23:22.640Z,11.18
2022-11-04T01:24:22.649Z,11.18
2022-11-04T01:25:22.620Z,11.17
2022-11-04T01:26:22.603Z,11.17
2022-11-04T01:27:22.584Z,11.15
2022-11-04T01:28:22.605Z,11.15
2022-11-04T01:29:22.590Z,11.14
2022-11-04T01:30:22.557Z,11.15
2022-11-04T01:31:22.578Z,11.17
2022-11-04T01:32:22.535Z,11.15
2022-11-04T01:33:22.517Z,11.14
2022-11-04T01:34:22.508Z,11.14
2022-11-04T01:35:22.501Z,11.14
2022-11-04T01:36:22.485Z,11.14
2022-11-04T01:37:23.458Z,11.14
2022-11-04T01:38:22.458Z,11.12
2022-11-04T01:39:22.448Z,11.12
2022-11-04T01:40:22.457Z,11.12
2022-11-04T01:41:22.425Z,11.12
2022-11-04T01:42:22.460Z,11.12
2022-11-04T01:43:22.406Z,11.10
2022-11-04T01:44:22.400Z,11.10
2022-11-04T01:45:22.386Z,11.11
2022-11-04T01:46:22.377Z,11.10
2022-11-04T01:47:22.359Z,11.08
2022-11-04T01:48:22.381Z,11.10
2022-11-04T01:49:22.340Z,11.11
2022-11-04T01:50:22.332Z,11.12
2022-11-04T01:51:22.313Z,11.12
2022-11-04T01:52:22.375Z,11.12
2022-11-04T01:53:22.303Z,11.12
2022-11-04T01:54:22.316Z,11.11
2022-11-04T01:55:22.306Z,11.14
2022-11-04T01:56:22.265Z,11.11
2022-11-04T01:57:22.242Z,11.08
2022-11-04T01:58:22.237Z,11.07
2022-11-04T01:59:22.232Z,11.05
2022-11-04T02:00:22.203Z,11.02
2022-11-04T02:01:22.362Z,11.00
2022-11-04T02:02:22.431Z,10.96
2022-11-04T02:03:22.172Z,10.94
2022-11-04T02:04:22.173Z,10.93
2022-11-04T02:05:22.165Z,10.94
2022-11-04T02:06:22.146Z,10.93
2022-11-04T02:07:22.143Z,10.93
2022-11-04T02:08:22.147Z,10.92
2022-11-04T02:09:22.122Z,10.92
2022-11-04T02:10:22.101Z,10.93
2022-11-04T02:11:22.097Z,10.94
2022-11-04T02:12:22.076Z,10.93
2022-11-04T02:13:22.095Z,10.94
2022-11-04T02:14:22.066Z,10.94
2022-11-04T02:15:22.057Z,10.94
2022-11-04T02:16:22.027Z,10.93
2022-11-04T02:17:22.018Z,10.90
2022-11-04T02:18:22.017Z,10.87
2022-11-04T02:19:21.998Z,10.89
2022-11-04T02:20:22.009Z,10.90
2022-11-04T02:21:21.993Z,10.89
2022-11-04T02:22:21.960Z,10.89
2022-11-04T02:23:21.959Z,10.87
2022-11-04T02:24:21.972Z,10.86
2022-11-04T02:25:21.977Z,10.82
2022-11-04T02:26:21.938Z,10.82
2022-11-04T02:27:21.904Z,10.78
2022-11-04T02:28:21.899Z,10.78
2022-11-04T02:29:21.903Z,10.76
2022-11-04T02:30:21.894Z,10.78
2022-11-04T02:31:21.871Z,10.78
2022-11-04T02:32:21.909Z,10.75
2022-11-04T02:33:21.842Z,10.75
2022-11-04T02:34:21.831Z,10.78
2022-11-04T02:35:21.813Z,10.78
2022-11-04T02:36:21.813Z,10.78
2022-11-04T02:37:21.790Z,10.78
2022-11-04T02:38:21.806Z,10.76
2022-11-04T02:39:21.776Z,10.75
2022-11-04T02:40:21.790Z,10.74
2022-11-04T02:41:21.745Z,10.71
2022-11-04T02:42:21.733Z,10.71
2022-11-04T02:43:21.737Z,10.68
2022-11-04T02:44:21.714Z,10.69
2022-11-04T02:45:21.707Z,10.69
2022-11-04T02:46:21.716Z,10.69
2022-11-04T02:47:21.675Z,10.71
2022-11-04T02:48:21.670Z,10.69
2022-11-04T02:49:21.669Z,10.71
2022-11-04T02:50:21.651Z,10.71
2022-11-04T02:51:21.656Z,10.71
2022-11-04T02:52:21.655Z,10.71
2022-11-04T02:53:21.606Z,10.69
2022-11-04T02:54:21.646Z,10.68
2022-11-04T02:55:21.606Z,10.68
2022-11-04T02:56:21.699Z,10.67
2022-11-04T02:57:21.589Z,10.64
2022-11-04T02:58:21.577Z,10.63
2022-11-04T02:59:21.549Z,10.63
2022-11-04T03:00:21.546Z,10.63
2022-11-04T03:01:21.656Z,10.61
2022-11-04T03:02:21.628Z,10.61
2022-11-04T03:03:21.528Z,10.60
2022-11-04T03:04:21.488Z,10.57
2022-11-04T03:05:22.435Z,10.54
2022-11-04T03:06:21.481Z,10.53
2022-11-04T03:07:21.489Z,10.51
2022-11-04T03:08:21.446Z,10.46
2022-11-04T03:09:21.436Z,10.46
2022-11-04T03:10:21.430Z,10.42
2022-11-04T03:11:21.407Z,10.40
2022-11-04T03:12:21.407Z,10.35
2022-11-04T03:13:21.413Z,10.34
2022-11-04T03:14:21.383Z,10.33
2022-11-04T03:15:21.364Z,10.31
2022-11-04T03:16:21.394Z,10.30
2022-11-04T03:17:21.343Z,10.28
2022-11-04T03:18:21.341Z,10.23
2022-11-04T03:19:21.324Z,10.23
2022-11-04T03:20:21.321Z,10.25
2022-11-04T03:21:21.303Z,10.25
2022-11-04T03:22:21.311Z,10.23
2022-11-04T03:23:21.281Z,10.22
2022-11-04T03:24:21.273Z,10.20
2022-11-04T03:25:21.258Z,10.22
2022-11-04T03:26:21.241Z,10.22
2022-11-04T03:27:21.267Z,10.19
2022-11-04T03:28:21.228Z,10.19
2022-11-04T03:29:21.205Z,10.20
2022-11-04T03:30:21.200Z,10.20
2022-11-04T03:31:21.227Z,10.20
2022-11-04T03:32:21.181Z,10.22
2022-11-04T03:33:21.164Z,10.20
2022-11-04T03:34:21.164Z,10.22
2022-11-04T03:35:21.166Z,10.20
2022-11-04T03:36:21.136Z,10.17
2022-11-04T03:37:21.144Z,10.17
2022-11-04T03:38:21.115Z,10.16
2022-11-04T03:39:21.096Z,10.16
2022-11-04T03:40:21.087Z,10.13
2022-11-04T03:41:21.087Z,10.12
2022-11-04T03:42:21.147Z,10.07
2022-11-04T03:43:21.060Z,10.07
2022-11-04T03:44:21.048Z,10.04
2022-11-04T03:45:21.029Z,10.02
2022-11-04T03:46:21.035Z,9.99
2022-11-04T03:47:21.050Z,9.99
2022-11-04T03:48:21.020Z,9.98
2022-11-04T03:49:20.986Z,9.97
2022-11-04T03:50:20.977Z,9.98
2022-11-04T03:51:21.105Z,9.99
2022-11-04T03:52:20.961Z,9.99
2022-11-04T03:53:21.020Z,10.01
2022-11-04T03:54:20.930Z,10.01
2022-11-04T03:55:20.910Z,9.98
2022-11-04T03:56:20.911Z,9.98
2022-11-04T03:57:20.909Z,9.97
2022-11-04T03:58:20.883Z,9.97
2022-11-04T03:59:20.905Z,9.95
2022-11-04T04:00:20.872Z,9.95
2022-11-04T04:01:20.946Z,9.94
2022-11-04T04:02:20.875Z,9.94
2022-11-04T04:03:20.827Z,9.92
2022-11-04T04:04:20.852Z,9.94
2022-11-04T04:05:20.845Z,9.95
2022-11-04T04:06:20.789Z,9.95
2022-11-04T04:07:20.785Z,9.95
2022-11-04T04:08:20.785Z,9.98
2022-11-04T04:09:20.757Z,9.97
2022-11-04T04:10:20.755Z,9.95
2022-11-04T04:11:20.775Z,9.95
2022-11-04T04:12:20.725Z,9.95
2022-11-04T04:13:20.705Z,9.95
2022-11-04T04:14:20.701Z,9.94
2022-11-04T04:15:20.686Z,9.94
2022-11-04T04:16:23.321Z,9.94
2022-11-04T04:17:21.686Z,9.92
2022-11-04T04:18:20.656Z,9.92
2022-11-04T04:19:21.612Z,9.92
2022-11-04T04:20:20.667Z,9.92
2022-11-04T04:21:20.685Z,9.94
2022-11-04T04:22:20.644Z,9.92
2022-11-04T04:23:20.602Z,9.94
2022-11-04T04:24:20.589Z,9.95
2022-11-04T04:25:20.594Z,9.95
2022-11-04T04:26:20.599Z,9.95
2022-11-04T04:27:20.607Z,9.94
2022-11-04T04:28:20.559Z,9.95
2022-11-04T04:29:20.527Z,9.94
2022-11-04T04:30:20.511Z,9.92
2022-11-04T04:31:20.500Z,9.92
2022-11-04T04:32:20.522Z,9.91
2022-11-04T04:33:20.524Z,9.91
2022-11-04T04:34:20.495Z,9.91
2022-11-04T04:35:20.459Z,9.89
2022-11-04T04:36:20.459Z,9.87
2022-11-04T04:37:20.444Z,9.86
2022-11-04T04:38:20.430Z,9.84
2022-11-04T04:39:20.443Z,9.83
2022-11-04T04:40:24.834Z,9.80
2022-11-04T04:41:20.392Z,9.80
2022-11-04T04:42:20.389Z,9.79
2022-11-04T04:43:20.392Z,9.79
2022-11-04T04:44:20.362Z,9.74
2022-11-04T04:45:20.375Z,9.73
2022-11-04T04:46:21.344Z,9.72
2022-11-04T04:47:20.404Z,9.69
2022-11-04T04:48:20.333Z,9.69
2022-11-04T04:49:20.342Z,9.72
2022-11-04T04:50:20.299Z,9.69
2022-11-04T04:51:20.333Z,9.69
2022-11-04T04:52:20.264Z,9.68
2022-11-04T04:53:20.262Z,9.68
2022-11-04T04:54:20.247Z,9.66
2022-11-04T04:55:20.263Z,9.66
2022-11-04T04:56:20.225Z,9.64
2022-11-04T04:57:20.249Z,9.64
2022-11-04T04:58:20.194Z,9.65
2022-11-04T04:59:20.222Z,9.64
2022-11-04T05:00:20.217Z,9.62
2022-11-04T05:01:20.336Z,9.62
2022-11-04T05:02:20.296Z,9.62
2022-11-04T05:03:20.167Z,9.61
2022-11-04T05:04:21.088Z,9.59
2022-11-04T05:05:20.181Z,9.59
2022-11-04T05:06:20.612Z,9.58
2022-11-04T05:07:21.097Z,9.55
2022-11-04T05:08:20.238Z,9.51
2022-11-04T05:09:20.101Z,9.54
2022-11-04T05:10:20.068Z,9.51
2022-11-04T05:11:24.407Z,9.51
2022-11-04T05:12:21.051Z,9.54
2022-11-04T05:13:20.034Z,9.55
2022-11-04T05:14:20.056Z,9.55
2022-11-04T05:15:20.021Z,9.56
2022-11-04T05:16:19.999Z,9.56
2022-11-04T05:17:20.035Z,9.55
2022-11-04T05:18:19.996Z,9.55
2022-11-04T05:19:20.012Z,9.56
2022-11-04T05:20:19.999Z,9.58
2022-11-04T05:21:20.644Z,9.61
2022-11-04T05:22:21.401Z,9.59
2022-11-04T05:23:19.932Z,9.56
2022-11-04T05:24:19.963Z,9.56
2022-11-04T05:25:19.903Z,9.54
2022-11-04T05:26:19.937Z,9.55
2022-11-04T05:27:19.898Z,9.54
2022-11-04T05:28:19.895Z,9.55
2022-11-04T05:29:19.877Z,9.54
2022-11-04T05:30:19.838Z,9.54
2022-11-04T05:31:20.197Z,9.54
2022-11-04T05:32:19.876Z,9.51
2022-11-04T05:33:19.848Z,9.54
2022-11-04T05:34:19.788Z,9.51
2022-11-04T05:35:19.785Z,9.54
2022-11-04T05:36:19.796Z,9.55
2022-11-04T05:37:19.805Z,9.54
2022-11-04T05:38:19.778Z,9.55
2022-11-04T05:39:19.753Z,9.51
2022-11-04T05:40:19.721Z,9.51
2022-11-04T05:41:19.728Z,9.48
2022-11-04T05:42:19.727Z,9.47
2022-11-04T05:43:19.690Z,9.47
2022-11-04T05:44:19.889Z,9.46
2022-11-04T05:45:19.703Z,9.44
2022-11-04T05:46:19.689Z,9.40
2022-11-04T05:47:19.651Z,9.37
2022-11-04T05:48:19.653Z,9.36
2022-11-04T05:49:19.632Z,9.32
2022-11-04T05:50:19.640Z,9.29
2022-11-04T05:51:19.641Z,9.28
2022-11-04T05:52:19.606Z,9.26
2022-11-04T05:53:20.533Z,9.25
2022-11-04T05:54:19.587Z,9.23
2022-11-04T05:55:19.574Z,9.22
2022-11-04T05:56:19.559Z,9.21
2022-11-04T05:57:19.564Z,9.21
2022-11-04T05:58:19.554Z,9.22
2022-11-04T05:59:19.554Z,9.21
2022-11-04T06:00:19.500Z,9.19
2022-11-04T06:01:19.540Z,9.21
2022-11-04T06:02:19.563Z,9.18
2022-11-04T06:03:19.538Z,9.18
2022-11-04T06:04:19.456Z,9.16
2022-11-04T06:05:19.615Z,9.16
2022-11-04T06:06:19.439Z,9.18
2022-11-04T06:07:19.438Z,9.19
2022-11-04T06:08:19.416Z,9.18
2022-11-04T06:09:19.397Z,9.18
2022-11-04T06:10:19.393Z,9.16
2022-11-04T06:11:19.417Z,9.13
2022-11-04T06:12:19.382Z,9.13
2022-11-04T06:13:19.366Z,9.13
2022-11-04T06:14:19.346Z,9.11
2022-11-04T06:15:19.356Z,9.11
2022-11-04T06:16:19.355Z,9.08
2022-11-04T06:17:19.359Z,9.04
2022-11-04T06:18:19.348Z,9.03
2022-11-04T06:19:19.286Z,9.03
2022-11-04T06:20:19.277Z,9.00
2022-11-04T06:21:19.275Z,8.97
2022-11-04T06:22:19.259Z,8.94
2022-11-04T06:23:19.350Z,8.94
2022-11-04T06:24:19.267Z,8.94
2022-11-04T06:25:19.435Z,8.92
2022-11-04T06:26:21.630Z,8.92
2022-11-04T06:27:20.201Z,8.91
2022-11-04T06:28:19.181Z,8.88
2022-11-04T06:29:19.191Z,8.88
2022-11-04T06:30:19.159Z,8.88
2022-11-04T06:31:19.157Z,8.87
2022-11-04T06:32:19.178Z,8.85
2022-11-04T06:33:19.127Z,8.85
2022-11-04T06:34:19.122Z,8.85
2022-11-04T06:35:19.113Z,8.87
2022-11-04T06:36:19.088Z,8.88
2022-11-04T06:37:19.098Z,8.91
2022-11-04T06:38:19.080Z,8.92
2022-11-04T06:39:19.090Z,8.95
2022-11-04T06:40:19.069Z,8.97
2022-11-04T06:41:19.085Z,9.02
2022-11-04T06:42:19.991Z,9.03
2022-11-04T06:43:19.012Z,9.06
2022-11-04T06:44:19.010Z,9.11
2022-11-04T06:45:19.037Z,9.11
2022-11-04T06:46:19.009Z,9.18
2022-11-04T06:47:24.466Z,9.18
2022-11-04T06:48:19.970Z,9.21
2022-11-04T06:49:18.960Z,9.21
2022-11-04T06:50:18.934Z,9.22
2022-11-04T06:51:18.940Z,9.22
2022-11-04T06:52:18.923Z,9.25
2022-11-04T06:53:18.934Z,9.26
2022-11-04T06:54:18.893Z,9.26
2022-11-04T06:55:18.921Z,9.28
2022-11-04T06:56:18.865Z,9.31
2022-11-04T06:57:20.814Z,9.32
2022-11-04T06:58:18.850Z,9.36
2022-11-04T06:59:18.848Z,9.37
2022-11-04T07:00:18.857Z,9.39
2022-11-04T07:01:22.141Z,9.37
2022-11-04T07:02:18.948Z,9.39
2022-11-04T07:03:18.797Z,9.37
2022-11-04T07:04:18.791Z,9.37
2022-11-04T07:05:18.988Z,9.39
2022-11-04T07:06:20.229Z,9.39
2022-11-04T07:07:19.720Z,9.40
2022-11-04T07:08:18.736Z,9.39
2022-11-04T07:09:18.740Z,9.39
2022-11-04T07:10:18.716Z,9.37
2022-11-04T07:11:18.727Z,9.39
2022-11-04T07:12:18.698Z,9.40
2022-11-04T07:13:18.701Z,9.43
2022-11-04T07:14:18.686Z,9.43
2022-11-04T07:15:23.195Z,9.47
2022-11-04T07:16:19.662Z,9.50
2022-11-04T07:17:18.679Z,9.51
2022-11-04T07:18:18.683Z,9.55
2022-11-04T07:19:18.624Z,9.58
2022-11-04T07:20:18.627Z,9.59
2022-11-04T07:21:18.589Z,9.61
2022-11-04T07:22:18.595Z,9.62
2022-11-04T07:23:18.595Z,9.62
2022-11-04T07:24:18.572Z,9.61
2022-11-04T07:25:18.560Z,9.62
2022-11-04T07:26:18.549Z,9.62
2022-11-04T07:27:18.892Z,9.62
2022-11-04T07:28:18.512Z,9.62
2022-11-04T07:29:18.503Z,9.64
2022-11-04T07:30:18.487Z,9.66
2022-11-04T07:31:18.483Z,9.66
2022-11-04T07:32:18.509Z,9.68
2022-11-04T07:33:18.476Z,9.68
2022-11-04T07:34:18.460Z,9.69
2022-11-04T07:35:18.441Z,9.69
2022-11-04T07:36:18.426Z,9.69
2022-11-04T07:37:18.436Z,9.73
2022-11-04T07:38:18.470Z,9.74
2022-11-04T07:39:18.396Z,9.77
2022-11-04T07:40:18.377Z,9.80
2022-11-04T07:41:18.371Z,9.80
2022-11-04T07:42:18.362Z,9.80
2022-11-04T07:43:18.347Z,9.82
2022-11-04T07:44:18.366Z,9.83
2022-11-04T07:45:18.322Z,9.84
2022-11-04T07:46:18.314Z,9.86
2022-11-04T07:47:18.297Z,9.89
2022-11-04T07:48:18.290Z,9.92
2022-11-04T07:49:18.283Z,9.91
2022-11-04T07:50:18.352Z,9.89
2022-11-04T07:51:18.272Z,9.91
2022-11-04T07:52:18.254Z,9.92
2022-11-04T07:53:18.249Z,9.94
2022-11-04T07:54:18.236Z,9.95
2022-11-04T07:55:18.225Z,9.95
2022-11-04T07:56:18.202Z,9.98
2022-11-04T07:57:18.192Z,9.99
2022-11-04T07:58:19.637Z,10.01
2022-11-04T07:59:18.188Z,10.05
2022-11-04T08:00:18.165Z,10.05
2022-11-04T08:01:20.135Z,10.09
2022-11-04T08:02:23.931Z,10.13
2022-11-04T08:03:19.201Z,10.15
2022-11-04T08:04:18.122Z,10.17
2022-11-04T08:05:18.102Z,10.19
2022-11-04T08:06:18.089Z,10.20
2022-11-04T08:07:18.069Z,10.20
2022-11-04T08:08:18.071Z,10.23
2022-11-04T08:09:18.100Z,10.26
2022-11-04T08:10:18.104Z,10.31
2022-11-04T08:11:18.243Z,10.31
2022-11-04T08:12:18.036Z,10.33
2022-11-04T08:13:18.001Z,10.35
2022-11-04T08:14:18.010Z,10.35
2022-11-04T08:15:17.976Z,10.35
2022-11-04T08:16:18.012Z,10.37
2022-11-04T08:17:17.986Z,10.38
2022-11-04T08:18:17.953Z,10.40
2022-11-04T08:19:17.934Z,10.42
2022-11-04T08:20:17.920Z,10.44
2022-11-04T08:21:17.920Z,10.46
2022-11-04T08:22:17.947Z,10.48
2022-11-04T08:23:17.911Z,10.48
2022-11-04T08:24:17.884Z,10.51
2022-11-04T08:25:17.873Z,10.54
2022-11-04T08:26:17.934Z,10.57
2022-11-04T08:27:17.834Z,10.59
2022-11-04T08:28:17.951Z,10.63
2022-11-04T08:29:18.118Z,10.68
2022-11-04T08:30:17.835Z,10.68
2022-11-04T08:31:17.829Z,10.72
2022-11-04T08:32:17.815Z,10.76
2022-11-04T08:33:17.793Z,10.82
2022-11-04T08:34:17.758Z,10.90
2022-11-04T08:35:17.754Z,10.93
2022-11-04T08:36:17.776Z,10.99
2022-11-04T08:37:17.765Z,11.02
2022-11-04T08:38:17.739Z,11.08
2022-11-04T08:39:17.747Z,11.12
2022-11-04T08:40:17.697Z,11.17
2022-11-04T08:41:17.687Z,11.18
2022-11-04T08:42:17.689Z,11.19
2022-11-04T08:43:18.493Z,11.23
2022-11-04T08:44:17.669Z,11.25
2022-11-04T08:45:17.686Z,11.26
2022-11-04T08:46:17.638Z,11.29
2022-11-04T08:47:17.620Z,11.32
2022-11-04T08:48:17.607Z,11.36
2022-11-04T08:49:21.129Z,11.41
2022-11-04T08:50:17.623Z,11.47
2022-11-04T08:51:17.609Z,11.48
2022-11-04T08:52:17.563Z,11.51
2022-11-04T08:53:17.557Z,11.54
2022-11-04T08:54:17.542Z,11.55
2022-11-04T08:55:17.533Z,11.55
2022-11-04T08:56:17.640Z,11.55
2022-11-04T08:57:17.512Z,11.55
2022-11-04T08:58:17.491Z,11.54
2022-11-04T08:59:17.503Z,11.50
2022-11-04T09:00:17.513Z,11.47
2022-11-04T09:01:17.562Z,11.43
2022-11-04T09:02:17.476Z,11.36
2022-11-04T09:03:17.439Z,11.35
2022-11-04T09:04:17.484Z,11.32
2022-11-04T09:05:17.727Z,11.27
2022-11-04T09:06:17.443Z,11.26
2022-11-04T09:07:17.416Z,11.25
2022-11-04T09:08:17.550Z,11.26
2022-11-04T09:09:17.392Z,11.23
2022-11-04T09:10:17.378Z,11.19
2022-11-04T09:11:17.371Z,11.17
2022-11-04T09:12:17.375Z,11.17
2022-11-04T09:13:17.357Z,11.15
2022-11-04T09:14:17.334Z,11.15
2022-11-04T09:15:17.297Z,11.15
2022-11-04T09:16:17.300Z,11.12
2022-11-04T09:17:17.309Z,11.10
2022-11-04T09:18:17.326Z,11.11
2022-11-04T09:19:17.625Z,11.11
2022-11-04T09:20:17.264Z,11.11
2022-11-04T09:21:17.239Z,11.10
2022-11-04T09:22:17.222Z,11.11
2022-11-04T09:23:17.231Z,11.12
2022-11-04T09:24:17.218Z,11.15
2022-11-04T09:25:17.390Z,11.18
2022-11-04T09:26:17.215Z,11.22
2022-11-04T09:27:17.173Z,11.25
2022-11-04T09:28:17.164Z,11.26
2022-11-04T09:29:18.110Z,11.30
2022-11-04T09:30:17.139Z,11.36
2022-11-04T09:31:17.163Z,11.40
2022-11-04T09:32:17.183Z,11.45
2022-11-04T09:33:17.105Z,11.50
2022-11-04T09:34:17.119Z,11.54
2022-11-04T09:35:18.095Z,11.55
2022-11-04T09:36:17.077Z,11.59
2022-11-04T09:37:17.073Z,11.60
2022-11-04T09:38:17.089Z,11.60
2022-11-04T09:39:17.034Z,11.65
2022-11-04T09:40:17.077Z,11.69
2022-11-04T09:41:17.047Z,11.72
2022-11-04T09:42:17.016Z,11.73
2022-11-04T09:43:17.063Z,11.78
2022-11-04T09:44:17.006Z,11.81
2022-11-04T09:45:22.208Z,11.81
2022-11-04T09:46:17.954Z,11.83
2022-11-04T09:47:21.652Z,11.83
2022-11-04T09:48:17.941Z,11.81
2022-11-04T09:49:16.941Z,11.81
2022-11-04T09:50:16.934Z,11.81
2022-11-04T09:51:39.742Z,11.80
2022-11-04T09:52:18.004Z,11.77
2022-11-04T09:53:16.919Z,11.77
2022-11-04T09:54:16.896Z,11.75
2022-11-04T09:55:16.849Z,11.70
2022-11-04T09:56:16.846Z,11.70
2022-11-04T09:57:16.848Z,11.68
2022-11-04T09:58:16.926Z,11.68
2022-11-04T09:59:16.829Z,11.65
2022-11-04T10:00:16.834Z,11.63
2022-11-04T10:01:16.928Z,11.62
2022-11-04T10:02:21.928Z,11.60
2022-11-04T10:03:17.783Z,11.57
2022-11-04T10:04:16.758Z,11.55
2022-11-04T10:05:16.787Z,11.57
2022-11-04T10:06:16.732Z,11.57
2022-11-04T10:07:16.720Z,11.60
2022-11-04T10:08:16.703Z,11.60
2022-11-04T10:09:16.944Z,11.65
2022-11-04T10:10:16.692Z,11.69
2022-11-04T10:11:16.681Z,11.75
2022-11-04T10:12:16.663Z,11.86
2022-11-04T10:13:16.692Z,11.97
2022-11-04T10:14:16.652Z,12.07
2022-11-04T10:15:16.652Z,12.17
2022-11-04T10:16:16.628Z,12.25
2022-11-04T10:17:16.612Z,12.32
2022-11-04T10:18:16.608Z,12.42
2022-11-04T10:19:16.591Z,12.46
2022-11-04T10:20:16.626Z,12.50
2022-11-04T10:21:16.558Z,12.54
2022-11-04T10:22:16.803Z,12.55
2022-11-04T10:23:16.569Z,12.53
2022-11-04T10:24:16.586Z,12.53
2022-11-04T10:25:16.578Z,12.57
2022-11-04T10:26:16.565Z,12.61
2022-11-04T10:27:16.588Z,12.62
2022-11-04T10:28:16.657Z,12.68
2022-11-04T10:29:16.473Z,12.72
2022-11-04T10:30:16.550Z,12.78
2022-11-04T10:31:16.514Z,12.80
2022-11-04T10:32:21.936Z,12.83
2022-11-04T10:33:17.445Z,12.87
2022-11-04T10:34:16.438Z,12.93
2022-11-04T10:35:16.468Z,12.95
2022-11-04T10:36:16.399Z,12.98
2022-11-04T10:37:16.414Z,13.01
2022-11-04T10:38:16.382Z,13.01
2022-11-04T10:39:16.368Z,13.04
2022-11-04T10:40:16.362Z,13.08
2022-11-04T10:41:16.471Z,13.12
2022-11-04T10:42:16.374Z,13.16
2022-11-04T10:43:16.322Z,13.22
2022-11-04T10:44:16.311Z,13.28
2022-11-04T10:45:16.295Z,13.35
2022-11-04T10:46:16.435Z,13.38
2022-11-04T10:47:16.283Z,13.46
2022-11-04T10:48:16.283Z,13.52
2022-11-04T10:49:16.285Z,13.56
2022-11-04T10:50:31.884Z,13.62
2022-11-04T10:51:17.232Z,13.65
2022-11-04T10:52:20.657Z,13.68
2022-11-04T10:53:17.211Z,13.71
2022-11-04T10:54:16.205Z,13.71
2022-11-04T10:55:16.235Z,13.67
2022-11-04T10:56:16.276Z,13.67
2022-11-04T10:57:16.275Z,13.65
2022-11-04T10:58:16.232Z,13.68
2022-11-04T10:59:20.102Z,13.68
2022-11-04T11:00:17.086Z,13.70
2022-11-04T11:01:16.330Z,13.70
2022-11-04T11:02:16.212Z,13.67
2022-11-04T11:03:16.097Z,13.63
2022-11-04T11:04:16.108Z,13.59
2022-11-04T11:05:16.070Z,13.56
2022-11-04T11:06:16.077Z,13.53
2022-11-04T11:07:16.044Z,13.47
2022-11-04T11:08:16.050Z,13.42
2022-11-04T11:09:16.073Z,13.39
2022-11-04T11:10:16.011Z,13.39
2022-11-04T11:11:16.002Z,13.38
2022-11-04T11:12:48.805Z,13.33
2022-11-04T11:13:16.969Z,13.30
2022-11-04T11:14:15.975Z,13.27
2022-11-04T11:15:15.964Z,13.18
2022-11-04T11:16:15.940Z,13.12
2022-11-04T11:17:15.983Z,13.05
2022-11-04T11:18:15.958Z,13.01
2022-11-04T11:19:15.900Z,13.00
2022-11-04T11:20:15.938Z,13.00
2022-11-04T11:21:15.903Z,13.01
2022-11-04T11:22:15.892Z,13.03
2022-11-04T11:23:15.864Z,13.08
2022-11-04T11:24:15.873Z,13.12
2022-11-04T11:25:15.843Z,13.16
2022-11-04T11:26:15.855Z,13.22
2022-11-04T11:27:15.836Z,13.31
2022-11-04T11:28:15.826Z,13.35
2022-11-04T11:29:15.796Z,13.37
2022-11-04T11:30:15.882Z,13.41
2022-11-04T11:31:15.827Z,13.46
2022-11-04T11:32:15.948Z,13.52
2022-11-04T11:33:15.904Z,13.57
2022-11-04T11:34:15.742Z,13.63
2022-11-04T11:35:15.733Z,13.70
2022-11-04T11:36:15.811Z,13.75
2022-11-04T11:37:15.734Z,13.77
2022-11-04T11:38:16.451Z,13.77
2022-11-04T11:39:15.729Z,13.75
2022-11-04T11:40:15.717Z,13.74
2022-11-04T11:41:24.523Z,13.75
2022-11-04T11:42:16.681Z,13.75
2022-11-04T11:43:15.646Z,13.77
2022-11-04T11:44:15.651Z,13.77
2022-11-04T11:45:15.651Z,13.74
2022-11-04T11:46:15.669Z,13.70
2022-11-04T11:47:15.882Z,13.59
2022-11-04T11:48:15.618Z,13.46
2022-11-04T11:49:15.592Z,13.38
2022-11-04T11:50:15.663Z,13.33
2022-11-04T11:51:15.555Z,13.30
2022-11-04T11:52:15.548Z,13.27
2022-11-04T11:53:15.520Z,13.20
2022-11-04T11:54:15.523Z,13.18
2022-11-04T11:55:15.610Z,13.12
2022-11-04T11:56:15.512Z,13.08
2022-11-04T11:57:18.574Z,13.01
2022-11-04T12:01:24.006Z,13.04
2022-11-04T12:02:16.484Z,13.05
2022-11-04T12:03:16.185Z,13.11
2022-11-04T12:09:17.334Z,13.62
2022-11-04T12:10:29.897Z,13.62
2022-11-04T12:11:16.339Z,13.60
2022-11-04T12:12:15.337Z,13.60
2022-11-04T12:13:23.753Z,13.60
2022-11-04T12:14:16.307Z,13.56
2022-11-04T12:15:16.750Z,13.54
2022-11-04T12:16:16.289Z,13.54
2022-11-04T12:17:15.255Z,13.54
2022-11-04T12:18:15.276Z,13.59
2022-11-04T12:19:15.637Z,13.60
2022-11-04T12:20:15.378Z,13.60
2022-11-04T12:21:15.228Z,13.59
2022-11-04T12:22:15.242Z,13.54
2022-11-04T12:23:15.717Z,13.52
2022-11-04T12:24:15.178Z,13.56
2022-11-04T12:25:15.349Z,13.65
2022-11-04T12:26:15.167Z,13.71
2022-11-04T12:27:15.993Z,13.78
2022-11-04T12:28:15.346Z,13.85
2022-11-04T12:29:15.110Z,13.89
2022-11-04T12:30:16.579Z,13.95
2022-11-04T12:31:15.250Z,14.00
2022-11-04T12:32:15.085Z,14.11
2022-11-04T12:33:16.066Z,14.25
2022-11-04T12:34:16.050Z,14.40
2022-11-04T12:35:15.120Z,14.55
2022-11-04T12:36:15.068Z,14.73
2022-11-04T12:37:15.042Z,14.94
2022-11-04T12:38:15.135Z,15.11
2022-11-04T12:39:15.002Z,15.25
2022-11-04T12:40:14.992Z,15.36
2022-11-04T12:42:28.081Z,15.52
2022-11-04T12:43:15.983Z,15.52
2022-11-04T12:44:14.964Z,15.55
2022-11-04T12:45:14.943Z,15.58
2022-11-04T12:46:14.991Z,15.62
2022-11-04T12:47:14.916Z,15.70
2022-11-04T12:48:14.921Z,15.76
2022-11-04T12:49:14.896Z,15.77
2022-11-04T12:50:15.048Z,15.80
2022-11-04T12:51:14.888Z,15.83
2022-11-04T12:52:14.888Z,15.90
2022-11-04T12:53:14.941Z,15.97
2022-11-04T12:54:14.841Z,16.04
2022-11-04T12:55:15.086Z,16.17
2022-11-04T12:56:14.856Z,16.28
2022-11-04T12:57:14.820Z,16.24
2022-11-04T12:58:14.799Z,16.10
2022-11-04T12:59:14.817Z,16.05
2022-11-04T13:00:14.785Z,15.90
2022-11-04T13:01:15.606Z,15.73
2022-11-04T13:02:15.273Z,15.65
2022-11-04T13:03:14.944Z,15.52
2022-11-04T13:04:15.409Z,15.42
2022-11-04T13:05:14.725Z,15.33
2022-11-04T13:06:14.788Z,15.27
2022-11-04T13:07:14.702Z,15.18
2022-11-04T13:08:14.704Z,15.04
2022-11-04T13:09:15.412Z,14.89